Time;durP1;ratioP1;P1;durP2;ratioP2;P2;SDS_P1;SDS_P2;PMS_P1;PMS_P2;Temp;Humidity;BMP_temperature;BMP_pressure;BME280_temperature;BME280_humidity;BME280_pressure;Samples;Min_cycle;Max_cycle;Signal;HPM_P1;HPM_P2
2022/12/11 00:01:21;;;;;;;16.03;10.80;;;12.30;99.90;;;;;;5029437;28;20295;-78
2022/12/11 00:03:48;;;;;;;17.00;11.00;;;12.20;99.90;;;;;;5020447;28;20238;-78
2022/12/11 00:06:18;;;;;;;18.83;11.20;;;12.20;99.90;;;;;;5030695;28;20774;-78
2022/12/11 00:08:45;;;;;;;18.23;10.87;;;12.20;99.90;;;;;;5023042;28;20196;-77
2022/12/11 00:11:15;;;;;;;14.80;10.87;;;12.20;99.90;;;;;;5029854;28;20238;-78
2022/12/11 00:13:42;;;;;;;18.03;10.93;;;12.20;99.90;;;;;;5029499;28;20184;-78
2022/12/11 00:16:09;;;;;;;16.17;11.30;;;12.20;99.90;;;;;;5044270;28;20212;-78
2022/12/11 00:18:37;;;;;;;15.77;11.17;;;12.30;99.90;;;;;;5011944;28;20271;-79
2022/12/11 00:21:09;;;;;;;16.20;11.17;;;12.30;99.90;;;;;;5009906;28;20208;-78
2022/12/11 00:23:37;;;;;;;17.13;10.80;;;12.20;99.90;;;;;;5028953;28;20270;-78
2022/12/11 00:26:14;;;;;;;15.07;11.20;;;12.20;99.90;;;;;;5028270;28;20184;-78
2022/12/11 00:28:41;;;;;;;15.00;11.03;;;12.20;99.90;;;;;;5011464;28;20956;-79
2022/12/11 00:31:13;;;;;;;17.23;11.20;;;12.20;99.90;;;;;;5024699;28;20193;-78
2022/12/11 00:33:39;;;;;;;17.63;11.97;;;12.20;99.90;;;;;;5030776;28;20887;-78
2022/12/11 00:36:13;;;;;;;17.00;10.77;;;12.20;99.90;;;;;;5025870;28;20196;-78
2022/12/11 00:38:40;;;;;;;16.33;11.33;;;12.20;99.90;;;;;;5035536;28;20286;-78
2022/12/11 00:41:06;;;;;;;15.53;11.03;;;12.20;99.90;;;;;;5008995;28;20276;-78
2022/12/11 00:43:33;;;;;;;17.10;11.10;;;12.20;99.90;;;;;;5027784;28;20239;-78
2022/12/11 00:45:59;;;;;;;14.37;11.60;;;12.20;99.90;;;;;;5026813;28;20543;-78
2022/12/11 00:48:26;;;;;;;15.23;10.90;;;12.20;99.90;;;;;;5029544;28;20581;-79
2022/12/11 00:50:52;;;;;;;17.23;11.47;;;12.20;99.90;;;;;;5028146;28;20215;-78
2022/12/11 00:53:21;;;;;;;17.03;10.93;;;12.20;99.90;;;;;;5013627;28;20202;-78
2022/12/11 00:55:48;;;;;;;18.47;10.43;;;12.20;99.90;;;;;;5026820;28;20630;-78
2022/12/11 00:58:15;;;;;;;18.67;11.43;;;12.20;99.90;;;;;;5028945;28;20192;-78
2022/12/11 01:00:42;;;;;;;17.27;11.20;;;12.20;99.90;;;;;;5022689;28;20211;-76
2022/12/11 01:03:11;;;;;;;13.77;10.90;;;12.20;99.90;;;;;;5028729;28;20525;-76
2022/12/11 01:05:38;;;;;;;15.33;10.60;;;12.20;99.90;;;;;;5025614;28;20784;-76
2022/12/11 01:08:06;;;;;;;13.83;10.07;;;12.20;99.90;;;;;;5032194;28;20268;-76
2022/12/11 01:10:34;;;;;;;15.47;10.67;;;12.20;99.90;;;;;;5024704;28;20538;-76
2022/12/11 01:13:05;;;;;;;16.27;11.07;;;12.20;99.90;;;;;;5032925;28;20194;-76
2022/12/11 01:15:44;;;;;;;14.53;10.97;;;12.20;99.90;;;;;;5031428;28;20196;-76
2022/12/11 01:18:12;;;;;;;18.43;12.30;;;12.00;99.90;;;;;;5042668;28;20219;-76
2022/12/11 01:20:41;;;;;;;15.33;12.10;;;12.00;99.90;;;;;;5013008;28;20188;-76
2022/12/11 01:23:11;;;;;;;15.60;11.40;;;12.10;99.90;;;;;;5013298;28;20711;-76
2022/12/11 01:25:38;;;;;;;16.43;11.33;;;12.20;99.90;;;;;;5032083;28;20181;-76
2022/12/11 01:28:05;;;;;;;15.40;11.07;;;12.20;99.90;;;;;;5014684;28;20180;-76
2022/12/11 01:30:32;;;;;;;15.50;11.57;;;12.20;99.90;;;;;;5054319;28;20187;-76
2022/12/11 01:32:59;;;;;;;17.30;11.80;;;12.20;99.90;;;;;;5014317;28;20537;-76
2022/12/11 01:35:27;;;;;;;17.13;11.77;;;12.20;99.90;;;;;;5029806;28;20192;-76
2022/12/11 01:37:54;;;;;;;16.70;11.30;;;12.10;99.90;;;;;;5031521;28;20180;-76
2022/12/11 01:40:21;;;;;;;14.50;11.20;;;12.10;99.90;;;;;;5012931;28;20247;-76
2022/12/11 01:42:50;;;;;;;19.23;12.47;;;12.10;99.90;;;;;;5022476;28;20522;-76
2022/12/11 01:45:37;;;;;;;18.63;12.10;;;12.10;99.90;;;;;;5026569;28;20238;-76
2022/12/11 01:48:11;;;;;;;16.97;11.77;;;12.10;99.90;;;;;;5057411;28;20250;-76
2022/12/11 01:50:48;;;;;;;18.73;12.03;;;12.10;99.90;;;;;;5029334;28;20188;-75
2022/12/11 01:53:23;;;;;;;15.87;11.87;;;12.10;99.90;;;;;;5027193;28;20179;-76
2022/12/11 01:55:53;;;;;;;19.97;11.93;;;12.10;99.90;;;;;;5031726;28;20188;-76
2022/12/11 01:58:36;;;;;;;14.07;11.47;;;12.00;99.90;;;;;;5029553;28;20207;-76
2022/12/11 02:01:02;;;;;;;16.00;12.63;;;12.00;99.90;;;;;;5043781;28;20199;-76
2022/12/11 02:03:29;;;;;;;16.90;12.07;;;12.00;99.90;;;;;;5012849;28;20578;-76
2022/12/11 02:06:01;;;;;;;18.73;12.53;;;12.00;99.90;;;;;;5060845;28;20724;-76
2022/12/11 02:08:29;;;;;;;18.40;12.53;;;11.90;99.90;;;;;;5024627;28;20188;-76
2022/12/11 02:11:20;;;;;;;16.23;12.83;;;11.90;99.90;;;;;;5015572;28;20202;-76
2022/12/11 02:14:21;;;;;;;16.43;12.10;;;11.90;99.90;;;;;;5014521;28;20230;-76
2022/12/11 02:17:11;;;;;;;16.13;12.00;;;11.80;99.90;;;;;;5012728;28;20287;-76
2022/12/11 02:19:44;;;;;;;21.20;12.80;;;11.80;99.90;;;;;;5007746;28;20220;-76
2022/12/11 02:22:27;;;;;;;16.47;12.20;;;11.90;99.90;;;;;;5013158;28;20207;-76
2022/12/11 02:25:30;;;;;;;17.73;12.50;;;11.90;99.90;;;;;;5029625;28;20184;-76
2022/12/11 02:28:38;;;;;;;15.17;12.10;;;11.90;99.90;;;;;;5023075;28;20739;-76
2022/12/11 02:31:23;;;;;;;17.63;12.23;;;11.90;99.90;;;;;;5038776;28;20193;-76
2022/12/11 02:34:01;;;;;;;18.53;12.90;;;11.90;99.90;;;;;;5022061;28;20270;-76
2022/12/11 02:36:37;;;;;;;17.57;13.00;;;11.90;99.90;;;;;;5030366;28;20215;-76
2022/12/11 02:39:06;;;;;;;20.17;13.77;;;11.90;99.90;;;;;;5031770;28;20180;-76
2022/12/11 02:41:34;;;;;;;18.77;13.87;;;11.90;99.90;;;;;;5008879;28;20201;-76
2022/12/11 02:44:04;;;;;;;18.67;14.37;;;11.90;99.90;;;;;;5013356;28;20183;-76
2022/12/11 02:46:34;;;;;;;21.07;14.33;;;11.90;99.90;;;;;;5010404;28;20302;-76
2022/12/11 02:49:05;;;;;;;21.20;14.23;;;11.90;99.90;;;;;;5032249;28;20293;-76
2022/12/11 02:51:38;;;;;;;20.03;14.37;;;11.90;99.90;;;;;;5027140;28;20238;-78
2022/12/11 02:54:19;;;;;;;18.90;14.20;;;12.00;99.90;;;;;;5029120;28;20191;-78
2022/12/11 02:57:24;;;;;;;19.23;13.40;;;11.90;99.90;;;;;;5029246;28;20183;-78
2022/12/11 02:59:50;;;;;;;20.83;14.27;;;11.90;99.90;;;;;;5022102;28;20229;-77
2022/12/11 03:02:17;;;;;;;21.90;14.47;;;11.90;99.90;;;;;;5023471;28;20243;-77
2022/12/11 03:04:45;;;;;;;20.80;14.20;;;11.90;99.90;;;;;;5028433;28;20188;-77
2022/12/11 03:07:25;;;;;;;20.87;14.73;;;11.90;99.90;;;;;;5025802;28;20183;-77
2022/12/11 03:09:53;;;;;;;21.93;15.17;;;11.90;99.90;;;;;;5010319;28;20188;-77
2022/12/11 03:12:34;;;;;;;21.40;14.70;;;11.90;99.90;;;;;;5027696;28;20747;-77
2022/12/11 03:15:09;;;;;;;19.20;14.73;;;11.90;99.90;;;;;;5024526;28;20723;-77
2022/12/11 03:18:04;;;;;;;20.50;15.20;;;11.90;99.90;;;;;;5024126;28;20269;-77
2022/12/11 03:20:49;;;;;;;20.83;14.47;;;11.90;99.90;;;;;;5026986;28;20223;-77
2022/12/11 03:23:27;;;;;;;21.57;14.87;;;11.90;99.90;;;;;;5025608;28;20291;-77
2022/12/11 03:26:09;;;;;;;20.83;15.33;;;11.90;99.90;;;;;;5001696;28;20187;-77
2022/12/11 03:29:14;;;;;;;20.87;15.20;;;11.90;99.90;;;;;;5025168;28;20187;-77
2022/12/11 03:32:18;;;;;;;21.47;15.57;;;11.90;99.90;;;;;;5010760;28;20183;-77
2022/12/11 03:34:59;;;;;;;24.47;16.50;;;11.90;99.90;;;;;;5007588;28;20183;-77
2022/12/11 03:37:31;;;;;;;21.90;16.10;;;11.90;99.90;;;;;;5023721;28;20269;-77
2022/12/11 03:40:06;;;;;;;21.87;16.23;;;11.90;99.90;;;;;;5025941;28;20262;-77
2022/12/11 03:42:34;;;;;;;22.77;16.87;;;11.90;99.90;;;;;;5026210;28;20684;-77
2022/12/11 03:45:04;;;;;;;22.70;17.20;;;11.90;99.90;;;;;;5026488;28;20554;-77
2022/12/11 03:47:33;;;;;;;26.00;17.20;;;12.00;99.90;;;;;;5001895;28;20181;-77
2022/12/11 03:50:01;;;;;;;23.97;18.17;;;12.00;99.90;;;;;;5004873;28;20188;-77
2022/12/11 03:52:31;;;;;;;24.30;17.33;;;12.00;99.90;;;;;;5025577;28;20192;-77
2022/12/11 03:55:04;;;;;;;22.10;17.17;;;12.00;99.90;;;;;;5027139;28;20689;-77
2022/12/11 03:57:36;;;;;;;24.17;16.90;;;12.00;99.90;;;;;;5019969;28;20188;-77
2022/12/11 04:00:16;;;;;;;22.00;16.17;;;12.10;99.90;;;;;;5004858;28;20662;-77
2022/12/11 04:02:43;;;;;;;24.93;16.63;;;12.00;99.90;;;;;;5042767;28;20261;-77
2022/12/11 04:05:11;;;;;;;21.63;14.50;;;12.00;99.90;;;;;;5024102;28;20329;-77
2022/12/11 04:07:38;;;;;;;21.50;13.70;;;12.00;99.90;;;;;;5054005;28;20196;-77
2022/12/11 04:10:05;;;;;;;13.97;11.20;;;12.00;99.90;;;;;;5006832;28;20199;-77
2022/12/11 04:12:31;;;;;;;17.07;11.40;;;12.00;99.90;;;;;;5040983;28;20183;-77
2022/12/11 04:15:00;;;;;;;16.23;11.30;;;11.90;99.90;;;;;;5010438;28;20192;-76
2022/12/11 04:26:10;;;;;;;14.57;10.83;;;11.90;99.90;;;;;;5022159;28;20185;-77
2022/12/11 04:28:38;;;;;;;13.90;11.20;;;11.90;99.90;;;;;;4990593;28;20489;-77
2022/12/11 04:31:05;;;;;;;13.90;11.10;;;12.00;99.90;;;;;;5027751;28;20196;-77
2022/12/11 04:33:32;;;;;;;17.83;11.73;;;12.00;99.90;;;;;;5028131;28;20180;-77
2022/12/11 04:35:59;;;;;;;14.93;10.80;;;12.00;99.90;;;;;;5010350;28;20279;-77
2022/12/11 04:38:27;;;;;;;15.87;11.03;;;12.00;99.90;;;;;;4999950;28;20621;-76
2022/12/11 04:41:09;;;;;;;14.40;10.97;;;12.10;99.90;;;;;;5025238;28;20184;-77
2022/12/11 04:43:36;;;;;;;14.90;10.83;;;12.20;99.90;;;;;;5025209;28;20207;-76
2022/12/11 04:46:12;;;;;;;13.50;10.30;;;12.20;99.90;;;;;;5004576;28;20185;-77
2022/12/11 04:48:39;;;;;;;13.00;10.13;;;12.20;99.90;;;;;;5027658;28;20501;-77
2022/12/11 04:51:07;;;;;;;12.73;9.60;;;12.10;99.90;;;;;;5011783;28;20751;-77
2022/12/11 04:53:34;;;;;;;13.20;9.93;;;12.20;99.90;;;;;;5028641;28;20203;-77
2022/12/11 04:56:03;;;;;;;12.60;8.93;;;12.10;99.90;;;;;;5009748;28;20211;-77
2022/12/11 04:58:30;;;;;;;14.07;9.47;;;12.10;99.90;;;;;;5027164;28;20180;-77
2022/12/11 05:00:57;;;;;;;13.80;8.43;;;12.10;99.90;;;;;;5028888;28;20564;-77
2022/12/11 05:03:23;;;;;;;15.30;8.80;;;12.10;99.90;;;;;;5029974;28;20670;-77
2022/12/11 05:05:53;;;;;;;15.17;9.03;;;12.10;99.90;;;;;;5029437;28;20267;-77
2022/12/11 05:08:21;;;;;;;13.63;9.90;;;12.10;99.90;;;;;;5008529;28;20215;-76
2022/12/11 05:11:02;;;;;;;14.23;9.00;;;12.10;99.90;;;;;;5055206;28;20250;-77
2022/12/11 05:13:30;;;;;;;14.17;8.53;;;12.10;99.90;;;;;;5044940;28;20423;-77
2022/12/11 05:15:59;;;;;;;11.97;8.10;;;12.10;99.90;;;;;;5030913;28;20204;-77
2022/12/11 05:18:25;;;;;;;14.93;8.03;;;12.10;99.90;;;;;;5028948;28;20604;-77
2022/12/11 05:21:02;;;;;;;10.33;8.23;;;12.10;99.90;;;;;;5046492;28;20215;-77
2022/12/11 05:23:29;;;;;;;12.07;7.83;;;12.10;99.90;;;;;;5029594;28;20219;-77
2022/12/11 05:26:00;;;;;;;10.83;8.10;;;12.10;99.90;;;;;;5025562;28;20506;-77
2022/12/11 05:28:30;;;;;;;16.27;8.07;;;12.20;99.90;;;;;;5024662;28;20185;-77
2022/12/11 05:31:18;;;;;;;12.20;8.07;;;12.20;99.90;;;;;;5027567;28;20188;-77
2022/12/11 05:33:47;;;;;;;13.07;8.63;;;12.30;99.90;;;;;;5029380;28;20271;-77
2022/12/11 05:36:20;;;;;;;14.77;8.43;;;12.30;99.90;;;;;;5012864;28;20196;-77
2022/12/11 05:38:47;;;;;;;13.00;8.73;;;12.40;99.90;;;;;;5012390;28;20629;-77
2022/12/11 05:41:18;;;;;;;12.83;8.80;;;12.40;99.90;;;;;;5028128;28;20535;-77
2022/12/11 05:43:46;;;;;;;14.73;8.87;;;12.50;99.90;;;;;;5028765;28;20212;-77
2022/12/11 05:46:25;;;;;;;11.93;8.30;;;12.60;99.90;;;;;;5031073;28;20255;-77
2022/12/11 05:48:56;;;;;;;11.83;8.50;;;12.60;99.90;;;;;;5045149;28;20693;-77
2022/12/11 05:51:23;;;;;;;14.93;7.63;;;12.60;99.90;;;;;;5029097;28;20717;-77
2022/12/11 05:53:51;;;;;;;11.60;8.40;;;12.60;99.90;;;;;;5028880;28;20196;-77
2022/12/11 05:56:23;;;;;;;10.33;7.60;;;12.70;99.90;;;;;;5038022;28;20189;-77
2022/12/11 05:58:50;;;;;;;14.90;8.00;;;12.70;99.90;;;;;;5018523;28;20199;-77
2022/12/11 06:01:26;;;;;;;10.77;7.90;;;12.60;99.90;;;;;;5027426;28;20195;-77
2022/12/11 06:03:56;;;;;;;11.93;7.60;;;12.60;99.90;;;;;;5029083;28;20218;-76
2022/12/11 06:06:24;;;;;;;13.67;8.37;;;12.60;99.90;;;;;;5012293;28;20195;-77
2022/12/11 06:08:57;;;;;;;11.63;7.53;;;12.60;99.90;;;;;;5011333;28;20262;-77
2022/12/11 06:11:25;;;;;;;14.37;8.30;;;12.70;99.90;;;;;;5008906;28;20770;-77
2022/12/11 06:13:52;;;;;;;16.03;7.63;;;12.70;99.90;;;;;;5014686;28;20237;-77
2022/12/11 06:16:20;;;;;;;11.87;7.83;;;12.70;99.90;;;;;;5031983;28;20204;-77
2022/12/11 06:18:48;;;;;;;12.03;7.63;;;12.70;99.90;;;;;;5027521;28;20192;-77
2022/12/11 06:21:19;;;;;;;13.87;8.20;;;12.70;99.90;;;;;;5030035;28;20200;-77
2022/12/11 06:23:48;;;;;;;11.63;8.33;;;12.80;99.90;;;;;;5011645;28;20215;-77
2022/12/11 06:26:17;;;;;;;12.53;7.70;;;12.80;99.90;;;;;;5011929;28;20765;-78
2022/12/11 06:28:45;;;;;;;11.43;7.73;;;12.80;99.90;;;;;;5009038;28;20638;-77
2022/12/11 06:31:12;;;;;;;15.27;8.20;;;12.90;99.90;;;;;;5011455;28;20180;-77
2022/12/11 06:33:39;;;;;;;13.00;8.57;;;12.90;99.90;;;;;;5044043;28;20479;-77
2022/12/11 06:36:09;;;;;;;12.97;8.33;;;12.90;99.90;;;;;;5027957;28;20340;-77
2022/12/11 06:38:37;;;;;;;15.77;8.27;;;13.00;99.90;;;;;;5044180;28;20239;-77
2022/12/11 06:41:06;;;;;;;11.97;7.70;;;13.00;99.90;;;;;;5028268;28;20270;-77
2022/12/11 06:43:36;;;;;;;10.90;7.60;;;12.90;99.90;;;;;;4997966;28;20219;-77
2022/12/11 06:46:12;;;;;;;12.90;7.40;;;13.00;99.90;;;;;;5011525;28;20230;-77
2022/12/11 06:48:41;;;;;;;12.33;7.00;;;13.00;99.90;;;;;;5026061;28;20192;-78
2022/12/11 06:51:11;;;;;;;12.37;6.90;;;13.00;99.90;;;;;;5008200;28;20289;-77
2022/12/11 06:53:38;;;;;;;11.90;7.00;;;13.00;99.90;;;;;;5019183;28;20192;-77
2022/12/11 06:56:08;;;;;;;12.40;6.57;;;13.00;99.90;;;;;;5006123;28;20185;-77
2022/12/11 06:58:36;;;;;;;13.83;7.50;;;13.00;99.90;;;;;;5049462;28;20180;-77
2022/12/11 07:01:12;;;;;;;12.60;6.80;;;13.00;99.90;;;;;;5007705;28;20669;-77
2022/12/11 07:03:39;;;;;;;13.17;7.93;;;13.10;99.90;;;;;;5009104;28;20219;-77
2022/12/11 07:06:06;;;;;;;14.20;7.90;;;13.10;99.90;;;;;;4995120;28;20200;-77
2022/12/11 07:08:32;;;;;;;12.33;7.63;;;13.10;99.90;;;;;;5042952;28;20197;-77
2022/12/11 07:11:13;;;;;;;10.67;6.83;;;13.10;99.90;;;;;;5008565;28;20199;-77
2022/12/11 07:13:41;;;;;;;16.00;7.80;;;13.20;99.90;;;;;;5028408;28;20199;-77
2022/12/11 07:16:09;;;;;;;14.47;7.87;;;13.20;99.90;;;;;;5028426;28;20188;-77
2022/12/11 07:18:41;;;;;;;12.67;7.37;;;13.20;99.90;;;;;;5009912;28;20932;-77
2022/12/11 07:21:10;;;;;;;14.37;7.93;;;13.30;99.90;;;;;;5010618;28;20184;-77
2022/12/11 07:23:37;;;;;;;13.50;8.23;;;13.30;99.90;;;;;;5046991;28;20223;-78
2022/12/11 07:26:13;;;;;;;15.73;7.77;;;13.40;99.90;;;;;;5047111;28;20256;-77
2022/12/11 07:28:41;;;;;;;10.47;7.93;;;13.50;99.90;;;;;;5029493;28;20563;-77
2022/12/11 07:31:14;;;;;;;14.17;7.87;;;13.70;99.90;;;;;;5022807;28;20190;-77
2022/12/11 07:33:42;;;;;;;12.50;8.67;;;14.00;99.90;;;;;;5009551;28;20192;-77
2022/12/11 07:36:11;;;;;;;13.60;8.20;;;13.90;99.90;;;;;;5048914;28;20191;-78
2022/12/11 07:38:39;;;;;;;15.97;9.30;;;13.90;99.90;;;;;;5020116;28;20199;-76
2022/12/11 07:41:10;;;;;;;16.83;9.30;;;13.80;99.90;;;;;;5024820;28;20192;-77
2022/12/11 07:43:36;;;;;;;14.97;9.60;;;13.80;99.90;;;;;;5003392;28;20270;-77
2022/12/11 07:46:06;;;;;;;12.87;9.23;;;13.90;99.90;;;;;;5014819;28;20191;-77
2022/12/11 07:48:35;;;;;;;14.90;9.73;;;13.90;99.90;;;;;;5026326;28;20200;-77
2022/12/11 07:51:16;;;;;;;17.73;10.13;;;13.90;99.90;;;;;;5030057;28;20192;-77
2022/12/11 07:53:48;;;;;;;12.63;9.90;;;13.90;99.90;;;;;;5025400;28;20196;-77
2022/12/11 07:56:16;;;;;;;13.87;10.10;;;13.90;99.90;;;;;;5032403;28;20188;-77
2022/12/11 07:58:43;;;;;;;14.40;10.07;;;14.00;99.90;;;;;;5020612;28;20227;-77
2022/12/11 08:01:22;;;;;;;16.73;11.30;;;14.00;99.90;;;;;;5050160;28;20234;-77
2022/12/11 08:03:49;;;;;;;14.33;10.70;;;14.20;99.90;;;;;;5023958;28;20216;-77
2022/12/11 08:06:17;;;;;;;17.27;10.77;;;14.20;99.90;;;;;;5033793;28;20200;-77
2022/12/11 08:08:44;;;;;;;16.30;10.97;;;14.30;99.90;;;;;;5042207;28;21726;-77
2022/12/11 08:11:13;;;;;;;17.13;11.50;;;14.30;99.90;;;;;;5032872;28;20638;-77
2022/12/11 08:13:41;;;;;;;19.03;11.33;;;14.40;99.90;;;;;;5010556;28;20195;-77
2022/12/11 08:16:12;;;;;;;15.67;10.87;;;14.40;99.90;;;;;;5022512;28;20636;-77
2022/12/11 08:18:41;;;;;;;15.17;10.57;;;14.40;99.90;;;;;;5008225;28;20227;-77
2022/12/11 08:21:23;;;;;;;16.03;10.53;;;14.50;99.90;;;;;;5008641;28;20624;-77
2022/12/11 08:23:51;;;;;;;13.20;10.87;;;14.50;99.90;;;;;;5020152;28;20266;-77
2022/12/11 08:26:25;;;;;;;21.13;11.50;;;14.60;99.90;;;;;;5016399;28;20270;-77
2022/12/11 08:28:52;;;;;;;21.17;12.17;;;14.50;99.90;;;;;;5010823;28;20194;-77
2022/12/11 08:31:20;;;;;;;18.40;11.70;;;14.60;99.90;;;;;;5058849;28;20188;-77
2022/12/11 08:33:47;;;;;;;16.23;11.33;;;14.70;99.90;;;;;;5036086;28;20199;-77
2022/12/11 08:36:18;;;;;;;18.30;12.77;;;14.80;99.90;;;;;;5006454;28;20650;-77
2022/12/11 08:38:45;;;;;;;18.37;12.00;;;14.80;99.90;;;;;;5022303;28;20197;-77
2022/12/11 08:41:18;;;;;;;17.47;12.43;;;14.90;99.90;;;;;;5027961;28;20257;-77
2022/12/11 08:43:45;;;;;;;14.80;10.43;;;14.90;99.90;;;;;;5039842;28;20212;-77
2022/12/11 08:46:14;;;;;;;16.37;10.77;;;14.90;99.90;;;;;;5024228;28;20187;-77
2022/12/11 08:48:42;;;;;;;16.83;10.20;;;15.00;99.90;;;;;;5053123;28;20615;-77
2022/12/11 08:51:14;;;;;;;16.17;10.07;;;15.00;99.90;;;;;;5054974;28;20207;-77
2022/12/11 08:53:43;;;;;;;15.37;10.60;;;15.00;99.90;;;;;;5023140;28;20207;-77
2022/12/11 08:56:17;;;;;;;13.60;10.07;;;15.00;99.90;;;;;;5005313;28;20192;-77
2022/12/11 08:58:45;;;;;;;20.60;10.93;;;15.10;99.90;;;;;;5009679;28;20198;-77
2022/12/11 09:01:23;;;;;;;14.77;10.03;;;15.20;99.90;;;;;;5024359;28;20779;-77
2022/12/11 09:03:50;;;;;;;14.03;10.60;;;15.30;99.90;;;;;;5024530;28;20219;-77
2022/12/11 09:06:21;;;;;;;18.80;11.80;;;15.20;99.90;;;;;;5022855;28;20193;-77
2022/12/11 09:08:49;;;;;;;17.80;11.17;;;15.20;99.90;;;;;;5024262;28;20202;-77
2022/12/11 09:11:24;;;;;;;21.87;12.13;;;15.30;99.90;;;;;;5039034;28;20195;-77
2022/12/11 09:13:51;;;;;;;18.63;11.23;;;15.30;99.90;;;;;;5018508;28;20675;-77
2022/12/11 09:16:20;;;;;;;14.00;10.90;;;15.30;99.90;;;;;;5042590;28;20223;-77
2022/12/11 09:18:49;;;;;;;14.63;11.23;;;15.30;99.90;;;;;;5014194;28;20271;-77
2022/12/11 09:21:20;;;;;;;15.23;11.70;;;15.30;99.90;;;;;;5036025;28;20207;-77
2022/12/11 09:23:47;;;;;;;15.00;10.80;;;15.40;99.90;;;;;;5048119;28;20277;-77
2022/12/11 09:26:17;;;;;;;14.10;10.43;;;15.40;99.90;;;;;;5026028;28;20191;-77
2022/12/11 09:28:44;;;;;;;17.30;11.20;;;15.40;99.90;;;;;;5007407;28;20271;-78
2022/12/11 09:31:24;;;;;;;16.80;11.10;;;15.40;99.90;;;;;;5004087;28;20601;-77
2022/12/11 09:33:53;;;;;;;17.03;10.97;;;15.40;99.90;;;;;;5019964;28;20200;-78
2022/12/11 09:36:20;;;;;;;15.03;10.27;;;15.50;99.90;;;;;;5039175;28;20208;-77
2022/12/11 09:38:48;;;;;;;13.33;9.83;;;15.50;99.90;;;;;;5026816;28;20204;-77
2022/12/11 09:41:20;;;;;;;13.20;9.63;;;15.50;99.90;;;;;;5032023;28;20563;-77
2022/12/11 09:44:16;;;;;;;12.10;9.60;;;15.50;99.90;;;;;;5022171;28;20234;-77
2022/12/11 09:46:45;;;;;;;13.87;8.57;;;15.50;99.90;;;;;;5025731;28;20647;-77
2022/12/11 09:49:23;;;;;;;13.37;8.73;;;15.60;99.90;;;;;;5028725;28;20180;-78
2022/12/11 09:52:02;;;;;;;16.70;9.40;;;15.60;99.90;;;;;;5026553;28;20188;-77
2022/12/11 09:54:29;;;;;;;14.73;9.60;;;15.60;99.90;;;;;;5022640;28;20204;-78
2022/12/11 09:57:41;;;;;;;13.80;10.37;;;15.60;99.90;;;;;;5006598;28;20228;-77
2022/12/11 10:00:19;;;;;;;14.67;10.43;;;15.70;99.90;;;;;;5024592;28;20189;-77
2022/12/11 10:03:42;;;;;;;17.80;10.00;;;15.70;99.90;;;;;;5016088;28;20228;-77
2022/12/11 10:06:57;;;;;;;14.10;9.83;;;15.80;99.90;;;;;;5018747;28;20642;-77
2022/12/11 10:09:33;;;;;;;16.20;8.60;;;15.90;99.90;;;;;;5036674;28;20215;-78
2022/12/11 10:12:23;;;;;;;14.37;9.47;;;16.00;99.90;;;;;;5011892;28;20183;-78
2022/12/11 10:15:39;;;;;;;13.93;9.53;;;16.00;99.90;;;;;;5011500;28;20546;-78
2022/12/11 10:18:14;;;;;;;13.67;8.90;;;16.00;99.90;;;;;;5027620;28;20227;-78
2022/12/11 10:20:44;;;;;;;14.50;9.73;;;16.10;99.90;;;;;;5011952;28;20195;-77
2022/12/11 10:23:21;;;;;;;16.50;9.27;;;16.10;99.90;;;;;;5044426;28;20211;-77
2022/12/11 10:26:06;;;;;;;12.87;9.03;;;16.10;99.90;;;;;;5028358;28;20187;-78
2022/12/11 10:28:34;;;;;;;12.60;9.03;;;16.10;99.90;;;;;;5028698;28;20731;-78
2022/12/11 10:31:23;;;;;;;12.10;9.47;;;16.10;99.90;;;;;;5044527;28;20177;-78
2022/12/11 10:34:03;;;;;;;13.60;8.67;;;16.10;99.90;;;;;;5027895;28;20215;-78
2022/12/11 10:36:36;;;;;;;13.00;8.93;;;16.10;99.90;;;;;;5044780;28;20188;-78
2022/12/11 10:39:13;;;;;;;14.17;9.07;;;16.10;99.90;;;;;;5027476;28;20195;-78
2022/12/11 10:41:44;;;;;;;15.33;9.27;;;16.20;99.90;;;;;;5027777;28;20226;-78
2022/12/11 10:44:24;;;;;;;13.73;9.50;;;16.20;99.90;;;;;;5027936;28;20681;-77
2022/12/11 10:47:13;;;;;;;15.77;9.77;;;16.20;99.90;;;;;;5008429;28;20185;-78
2022/12/11 10:49:58;;;;;;;14.20;9.00;;;16.20;99.90;;;;;;4991581;28;20189;-78
2022/12/11 10:52:33;;;;;;;10.83;8.23;;;16.30;99.90;;;;;;5008284;28;20723;-78
2022/12/11 10:55:06;;;;;;;17.53;9.80;;;16.30;99.90;;;;;;5008290;28;20665;-77
2022/12/11 10:57:38;;;;;;;16.47;9.57;;;16.30;99.90;;;;;;5023960;28;20204;-77
2022/12/11 11:00:25;;;;;;;19.07;9.73;;;16.40;99.90;;;;;;4991207;28;20590;-77
2022/12/11 11:02:51;;;;;;;14.00;9.33;;;16.40;99.90;;;;;;5016209;28;20341;-78
2022/12/11 11:05:31;;;;;;;11.93;8.90;;;16.40;99.90;;;;;;5027824;28;20176;-77
2022/12/11 11:08:22;;;;;;;11.73;8.57;;;16.40;99.90;;;;;;5043679;28;20203;-77
2022/12/11 11:10:59;;;;;;;13.87;8.77;;;16.40;99.90;;;;;;5027838;28;20231;-78
2022/12/11 11:13:29;;;;;;;13.37;9.83;;;16.40;99.90;;;;;;5011175;28;20223;-77
2022/12/11 11:16:12;;;;;;;11.60;7.70;;;16.40;99.90;;;;;;5027688;28;20188;-78
2022/12/11 11:18:42;;;;;;;13.97;8.73;;;16.40;99.90;;;;;;5012203;28;20231;-78
2022/12/11 11:21:22;;;;;;;11.67;8.67;;;16.40;99.90;;;;;;5027783;28;20191;-77
2022/12/11 11:23:50;;;;;;;10.83;8.73;;;16.40;99.90;;;;;;5007128;28;20274;-77
2022/12/11 11:26:18;;;;;;;17.33;9.70;;;16.40;99.90;;;;;;5011212;28;20275;-77
2022/12/11 11:28:54;;;;;;;15.57;9.77;;;16.40;99.90;;;;;;5010215;28;20216;-78
2022/12/11 11:31:33;;;;;;;16.20;8.97;;;16.40;99.90;;;;;;5010990;28;20668;-78
2022/12/11 11:34:09;;;;;;;14.70;9.30;;;16.40;99.90;;;;;;5027208;28;20187;-78
2022/12/11 11:36:37;;;;;;;13.47;9.53;;;16.40;99.90;;;;;;5043894;28;20766;-78
2022/12/11 11:39:26;;;;;;;13.57;9.80;;;16.50;99.90;;;;;;5042382;28;20553;-77
2022/12/11 11:42:18;;;;;;;14.73;9.47;;;16.60;99.90;;;;;;5019799;28;20757;-78
2022/12/11 11:45:50;;;;;;;14.53;10.07;;;16.60;99.90;;;;;;5026701;28;20634;-78
2022/12/11 11:48:55;;;;;;;16.00;9.80;;;16.60;99.90;;;;;;4964488;28;20668;-77
2022/12/11 11:51:29;;;;;;;15.53;9.90;;;16.60;99.90;;;;;;4951370;28;20784;-78
2022/12/11 11:54:03;;;;;;;16.27;9.53;;;16.60;99.90;;;;;;4988860;28;20196;-77
2022/12/11 11:56:36;;;;;;;17.57;9.87;;;16.60;99.90;;;;;;5031002;28;20252;-77
2022/12/11 11:59:18;;;;;;;16.20;10.40;;;16.60;99.90;;;;;;5047101;28;20176;-77
2022/12/11 12:01:45;;;;;;;12.93;10.00;;;16.60;99.90;;;;;;5031503;28;20190;-78
2022/12/11 12:04:12;;;;;;;18.67;10.03;;;16.60;99.90;;;;;;5031351;28;20216;-78
2022/12/11 12:07:05;;;;;;;15.67;9.73;;;16.50;99.90;;;;;;5031172;28;20175;-77
2022/12/11 12:09:59;;;;;;;13.53;8.90;;;16.50;99.90;;;;;;5010800;28;20235;-77
2022/12/11 12:12:46;;;;;;;15.50;9.33;;;16.50;99.90;;;;;;5012834;28;20184;-77
2022/12/11 12:15:38;;;;;;;14.23;8.93;;;16.40;99.90;;;;;;5062939;28;20238;-77
2022/12/11 12:18:31;;;;;;;13.73;9.40;;;16.50;99.90;;;;;;5016466;28;20188;-78
2022/12/11 12:21:35;;;;;;;15.03;9.23;;;16.50;99.90;;;;;;5030819;28;20588;-78
2022/12/11 12:24:14;;;;;;;13.83;9.33;;;16.50;99.90;;;;;;5032128;28;20204;-78
2022/12/11 12:27:34;;;;;;;14.73;9.87;;;16.50;99.90;;;;;;5031302;28;20226;-77
2022/12/11 12:30:02;;;;;;;11.37;9.20;;;16.40;99.90;;;;;;4985619;28;20258;-77
2022/12/11 12:32:55;;;;;;;12.30;9.30;;;16.40;99.90;;;;;;5031021;28;20250;-77
2022/12/11 12:35:35;;;;;;;18.10;9.87;;;16.40;99.90;;;;;;5014188;28;20242;-77
2022/12/11 12:38:22;;;;;;;15.13;9.13;;;16.30;99.90;;;;;;5030164;28;20188;-77
2022/12/11 12:41:27;;;;;;;15.30;9.20;;;16.30;99.90;;;;;;5030722;28;20192;-77
2022/12/11 12:44:03;;;;;;;10.87;8.53;;;16.30;99.90;;;;;;5026046;28;20700;-77
2022/12/11 12:46:52;;;;;;;14.83;9.40;;;16.30;99.90;;;;;;5014193;28;20207;-78
2022/12/11 12:49:39;;;;;;;12.20;9.17;;;16.20;99.90;;;;;;5013277;28;20279;-77
2022/12/11 12:52:25;;;;;;;13.53;8.93;;;16.20;99.90;;;;;;5030134;28;20711;-78
2022/12/11 12:55:17;;;;;;;14.77;9.73;;;16.10;99.90;;;;;;5013743;28;20180;-77
2022/12/11 12:57:57;;;;;;;16.70;9.20;;;16.10;99.90;;;;;;5031258;28;20185;-77
2022/12/11 13:00:38;;;;;;;14.10;8.40;;;16.10;99.90;;;;;;5030050;28;20219;-77
2022/12/11 13:03:31;;;;;;;14.83;8.90;;;16.10;99.90;;;;;;5030170;28;20219;-77
2022/12/11 13:06:09;;;;;;;11.80;8.37;;;16.00;99.90;;;;;;5029645;28;20196;-76
2022/12/11 13:08:51;;;;;;;12.47;9.33;;;16.00;99.90;;;;;;5012905;28;20207;-77
2022/12/11 13:11:29;;;;;;;13.33;9.53;;;16.00;99.90;;;;;;5030091;28;20192;-78
2022/12/11 13:14:14;;;;;;;12.67;9.77;;;16.00;99.90;;;;;;5029698;28;20701;-77
2022/12/11 13:16:47;;;;;;;16.77;10.47;;;16.00;99.90;;;;;;5030118;28;20177;-77